createdAt,value
2022-09-28T00:01:25.671Z,5.32
2022-09-28T00:03:59.039Z,6.07
2022-09-28T00:06:31.342Z,5.60
2022-09-28T00:09:04.171Z,6.97
2022-09-28T00:11:36.261Z,4.82
2022-09-28T00:14:08.436Z,5.93
2022-09-28T00:16:43.746Z,6.18
2022-09-28T00:19:16.299Z,5.25
2022-09-28T00:21:48.404Z,5.95
2022-09-28T00:24:24.047Z,5.80
2022-09-28T00:27:01.510Z,6.10
2022-09-28T00:29:36.033Z,6.15
2022-09-28T00:32:12.320Z,6.80
2022-09-28T00:34:46.075Z,6.28
2022-09-28T00:37:19.737Z,5.78
2022-09-28T00:39:51.751Z,5.97
2022-09-28T00:42:25.978Z,6.57
2022-09-28T00:44:59.413Z,7.47
2022-09-28T00:47:51.024Z,6.75
2022-09-28T00:50:35.807Z,7.28
2022-09-28T00:53:20.545Z,6.55
2022-09-28T00:56:00.562Z,6.72
2022-09-28T00:58:38.424Z,7.00
2022-09-28T01:01:10.515Z,6.57
2022-09-28T01:03:45.492Z,6.50
2022-09-28T01:06:24.171Z,6.32
2022-09-28T01:08:59.178Z,6.85
2022-09-28T01:11:33.740Z,6.13
2022-09-28T01:14:09.753Z,6.20
2022-09-28T01:16:53.490Z,5.85
2022-09-28T01:20:13.042Z,6.63
2022-09-28T01:23:25.530Z,7.77
2022-09-28T01:26:22.179Z,6.90
2022-09-28T01:29:19.785Z,7.03
2022-09-28T01:32:36.689Z,6.38
2022-09-28T01:35:35.860Z,6.80
2022-09-28T01:38:25.489Z,6.10
2022-09-28T01:40:59.931Z,6.88
2022-09-28T01:43:37.964Z,7.07
2022-09-28T01:46:27.840Z,6.72
2022-09-28T01:49:08.961Z,15.10
2022-09-28T01:52:02.864Z,12.13
2022-09-28T01:54:52.921Z,9.10
2022-09-28T01:57:36.021Z,9.32
2022-09-28T02:00:11.998Z,8.80
2022-09-28T02:02:56.272Z,8.70
2022-09-28T02:05:33.542Z,8.10
2022-09-28T02:08:33.727Z,7.57
2022-09-28T02:11:09.695Z,9.00
2022-09-28T02:13:50.227Z,10.13
2022-09-28T02:16:42.743Z,8.98
2022-09-28T02:19:41.433Z,9.90
2022-09-28T02:22:37.347Z,9.73
2022-09-28T02:25:21.988Z,11.07
2022-09-28T02:28:02.542Z,9.70
2022-09-28T02:30:39.674Z,9.63
2022-09-28T02:33:29.658Z,16.55
2022-09-28T02:36:03.585Z,10.30
2022-09-28T02:38:37.282Z,10.40
2022-09-28T02:41:26.881Z,9.15
2022-09-28T02:44:36.406Z,10.50
2022-09-28T02:47:22.538Z,9.27
2022-09-28T02:50:13.229Z,9.32
2022-09-28T02:53:28.200Z,10.73
2022-09-28T02:56:39.507Z,10.38
2022-09-28T02:59:31.101Z,10.43
2022-09-28T03:02:41.270Z,9.57
2022-09-28T03:05:40.255Z,9.43
2022-09-28T03:08:42.331Z,9.75
2022-09-28T03:11:30.593Z,9.25
2022-09-28T03:14:04.374Z,10.07
2022-09-28T03:16:36.371Z,10.60
2022-09-28T03:19:08.288Z,8.95
2022-09-28T03:21:40.450Z,9.68
2022-09-28T03:24:12.377Z,10.80
2022-09-28T03:26:44.331Z,10.35
2022-09-28T03:29:16.462Z,9.27
2022-09-28T03:31:49.233Z,10.52
2022-09-28T03:34:21.249Z,11.40
2022-09-28T03:36:53.154Z,9.75
2022-09-28T03:39:25.765Z,11.45
2022-09-28T03:42:00.443Z,11.65
2022-09-28T03:44:32.614Z,11.63
2022-09-28T03:47:04.531Z,10.90
2022-09-28T03:49:37.085Z,10.30
2022-09-28T03:52:09.008Z,10.57
2022-09-28T03:54:42.294Z,10.68
2022-09-28T03:57:16.567Z,10.70
2022-09-28T03:59:48.472Z,10.23
2022-09-28T04:02:20.421Z,11.07
2022-09-28T04:04:52.507Z,11.52
2022-09-28T04:07:26.962Z,11.15
2022-09-28T04:10:02.225Z,11.40
2022-09-28T04:12:34.144Z,11.48
2022-09-28T04:15:06.739Z,13.57
2022-09-28T04:17:40.275Z,11.63
2022-09-28T04:20:12.281Z,11.55
2022-09-28T04:22:44.506Z,12.23
2022-09-28T04:25:16.513Z,10.88
2022-09-28T04:28:08.358Z,10.57
2022-09-28T04:30:40.251Z,11.32
2022-09-28T04:33:12.178Z,10.63
2022-09-28T04:35:44.194Z,10.90
2022-09-28T04:38:23.483Z,10.52
2022-09-28T04:41:07.964Z,10.77
2022-09-28T04:43:39.887Z,10.88
2022-09-28T04:46:12.102Z,11.90
2022-09-28T04:48:44.188Z,10.75
2022-09-28T04:51:16.234Z,9.70
2022-09-28T04:53:48.250Z,10.57
2022-09-28T04:56:20.204Z,9.45
2022-09-28T04:58:53.004Z,8.00
2022-09-28T05:01:25.783Z,8.95
2022-09-28T05:03:57.845Z,7.85
2022-09-28T05:06:30.823Z,8.30
2022-09-28T05:09:02.797Z,8.85
2022-09-28T05:11:34.734Z,9.55
2022-09-28T05:14:06.696Z,9.70
2022-09-28T05:16:38.685Z,8.95
2022-09-28T05:19:11.728Z,9.70
2022-09-28T05:21:45.852Z,14.20
2022-09-28T05:24:17.809Z,9.57
2022-09-28T05:26:49.854Z,7.93
2022-09-28T05:29:21.773Z,9.23
2022-09-28T05:31:53.785Z,8.05
2022-09-28T05:34:25.886Z,8.15
2022-09-28T05:36:57.826Z,8.00
2022-09-28T05:39:29.798Z,7.05
2022-09-28T05:42:01.792Z,7.05
2022-09-28T05:44:33.795Z,6.22
2022-09-28T05:47:05.924Z,7.00
2022-09-28T05:49:37.855Z,6.32
2022-09-28T05:52:09.751Z,5.82
2022-09-28T05:54:41.681Z,6.38
2022-09-28T05:57:14.893Z,5.57
2022-09-28T05:59:46.966Z,7.05
2022-09-28T06:02:18.933Z,5.90
2022-09-28T06:04:51.320Z,5.68
2022-09-28T06:07:23.982Z,6.32
2022-09-28T06:09:56.026Z,5.65
2022-09-28T06:12:28.038Z,5.35
2022-09-28T06:15:01.295Z,5.53
2022-09-28T06:17:33.399Z,5.75
2022-09-28T06:20:06.073Z,4.75
2022-09-28T06:22:38.908Z,5.80
2022-09-28T06:25:11.033Z,5.22
2022-09-28T06:27:43.217Z,5.07
2022-09-28T06:30:15.165Z,5.60
2022-09-28T06:32:47.099Z,5.25
2022-09-28T06:35:19.060Z,5.30
2022-09-28T06:37:51.379Z,5.88
2022-09-28T06:40:24.104Z,5.05
2022-09-28T06:43:10.705Z,5.55
2022-09-28T06:45:43.593Z,4.18
2022-09-28T06:48:16.592Z,4.53
2022-09-28T06:50:50.920Z,5.80
2022-09-28T06:53:23.782Z,5.32
2022-09-28T06:55:58.953Z,5.18
2022-09-28T06:58:32.377Z,5.10
2022-09-28T07:01:04.621Z,5.22
2022-09-28T07:03:36.789Z,5.32
2022-09-28T07:06:12.500Z,5.88
2022-09-28T07:08:47.381Z,5.72
2022-09-28T07:11:27.018Z,6.93
2022-09-28T07:13:58.946Z,5.75
2022-09-28T07:16:51.929Z,5.35
2022-09-28T07:19:22.833Z,5.05
2022-09-28T07:22:04.241Z,5.43
2022-09-28T07:24:37.261Z,6.68
2022-09-28T07:27:09.657Z,5.20
2022-09-28T07:29:41.667Z,6.32
2022-09-28T07:32:13.625Z,6.22
2022-09-28T07:34:45.700Z,6.35
2022-09-28T07:37:19.019Z,4.75
2022-09-28T07:40:09.375Z,5.78
2022-09-28T07:42:41.702Z,5.50
2022-09-28T07:45:13.743Z,6.10
2022-09-28T07:47:45.954Z,5.20
2022-09-28T07:50:18.212Z,3.45
2022-09-28T07:52:50.238Z,3.28
2022-09-28T07:55:22.165Z,2.45
2022-09-28T07:58:01.773Z,3.45
2022-09-28T08:00:34.354Z,3.22
2022-09-28T08:03:06.449Z,3.25
2022-09-28T08:05:39.194Z,2.70
2022-09-28T08:08:11.351Z,2.28
2022-09-28T08:10:47.163Z,2.42
2022-09-28T08:13:22.249Z,2.45
2022-09-28T08:15:55.778Z,2.58
2022-09-28T08:18:27.742Z,3.28
2022-09-28T08:21:18.015Z,3.25
2022-09-28T08:23:50.739Z,3.33
2022-09-28T08:26:22.685Z,2.75
2022-09-28T08:28:54.586Z,2.72
2022-09-28T08:31:26.503Z,3.15
2022-09-28T08:33:58.407Z,4.28
2022-09-28T08:36:30.348Z,2.95
2022-09-28T08:39:02.374Z,3.10
2022-09-28T08:42:10.635Z,3.88
2022-09-28T08:44:57.206Z,4.05
2022-09-28T08:48:02.938Z,4.13
2022-09-28T08:50:48.492Z,4.50
2022-09-28T08:53:42.379Z,2.97
2022-09-28T08:56:41.653Z,4.35
2022-09-28T08:59:22.253Z,4.65
2022-09-28T09:02:06.125Z,4.18
2022-09-28T09:04:38.129Z,3.97
2022-09-28T09:07:28.446Z,5.07
2022-09-28T09:10:28.693Z,5.45
2022-09-28T09:13:27.975Z,6.55
2022-09-28T09:16:45.669Z,12.18
2022-09-28T09:20:18.837Z,9.88
2022-09-28T09:23:00.984Z,9.38
2022-09-28T09:25:49.793Z,8.27
2022-09-28T09:28:52.493Z,6.38
2022-09-28T09:34:26.600Z,7.15
2022-09-28T09:37:24.259Z,7.60
2022-09-28T09:40:56.588Z,8.57
2022-09-28T09:44:16.605Z,9.93
2022-09-28T09:47:04.697Z,9.13
2022-09-28T09:50:05.490Z,10.18
2022-09-28T09:52:55.297Z,9.13
2022-09-28T09:55:37.230Z,10.10
2022-09-28T09:58:22.754Z,9.48
2022-09-28T10:01:01.822Z,10.95
2022-09-28T10:03:37.114Z,11.43
2022-09-28T10:06:26.541Z,11.18
2022-09-28T10:09:08.879Z,10.55
2022-09-28T10:11:45.811Z,11.55
2022-09-28T10:14:24.181Z,12.68
2022-09-28T10:16:57.863Z,13.05
2022-09-28T10:19:35.057Z,12.05
2022-09-28T10:22:07.700Z,13.30
2022-09-28T10:24:46.404Z,12.40
2022-09-28T10:27:24.179Z,13.52
2022-09-28T10:30:08.264Z,12.63
2022-09-28T10:32:46.606Z,11.75
2022-09-28T10:35:18.667Z,12.45
2022-09-28T10:38:14.278Z,10.13
2022-09-28T10:41:01.926Z,9.52
2022-09-28T10:43:39.576Z,11.70
2022-09-28T10:46:14.279Z,10.02
2022-09-28T10:48:54.681Z,9.45
2022-09-28T10:51:56.302Z,9.95
2022-09-28T10:54:31.427Z,8.48
2022-09-28T10:57:03.692Z,8.52
2022-09-28T10:59:40.902Z,8.57
2022-09-28T11:02:27.273Z,8.07
2022-09-28T11:05:03.119Z,9.77
2022-09-28T11:07:46.661Z,11.00
2022-09-28T11:10:25.183Z,10.52
2022-09-28T11:12:58.109Z,11.13
2022-09-28T11:15:33.283Z,11.65
2022-09-28T11:18:32.571Z,12.38
2022-09-28T11:21:12.531Z,12.10
2022-09-28T11:26:43.751Z,9.98
2022-09-28T11:29:41.972Z,9.95
2022-09-28T11:32:16.017Z,10.50
2022-09-28T11:35:05.235Z,9.30
2022-09-28T11:38:23.720Z,8.05
2022-09-28T11:41:20.358Z,8.25
2022-09-28T11:44:07.000Z,7.00
2022-09-28T11:47:09.786Z,7.37
2022-09-28T11:49:52.791Z,5.80
2022-09-28T11:52:45.586Z,6.80
2022-09-28T11:55:34.463Z,6.75
2022-09-28T11:58:31.024Z,7.22
2022-09-28T12:01:35.593Z,7.25
2022-09-28T12:04:18.080Z,8.63
2022-09-28T12:07:12.724Z,7.93
2022-09-28T12:09:55.385Z,8.07
2022-09-28T12:13:01.305Z,7.63
2022-09-28T12:19:18.723Z,9.25
2022-09-28T12:22:01.212Z,7.40
2022-09-28T12:25:00.068Z,8.13
2022-09-28T12:27:52.969Z,7.40
2022-09-28T12:30:25.864Z,7.88
2022-09-28T12:33:16.035Z,8.65
2022-09-28T12:36:28.545Z,7.78
2022-09-28T12:39:53.413Z,8.18
2022-09-28T12:43:10.626Z,7.93
2022-09-28T12:46:17.282Z,8.48
2022-09-28T12:50:13.770Z,7.57
2022-09-28T12:55:41.169Z,8.02
2022-09-28T12:59:06.275Z,7.40
2022-09-28T13:02:14.414Z,7.95
2022-09-28T13:05:23.978Z,8.45
2022-09-28T13:08:10.954Z,6.65
2022-09-28T13:10:51.593Z,6.10
2022-09-28T13:13:56.357Z,7.22
2022-09-28T13:16:59.780Z,6.65
2022-09-28T13:19:58.090Z,7.20
2022-09-28T13:22:44.482Z,7.93
2022-09-28T13:25:20.830Z,7.40
2022-09-28T13:28:05.231Z,8.13
2022-09-28T13:30:40.403Z,7.43
2022-09-28T13:33:44.568Z,6.30
2022-09-28T13:36:47.872Z,7.40
2022-09-28T13:39:46.896Z,6.38
2022-09-28T13:42:56.397Z,7.25
2022-09-28T13:45:53.520Z,6.43
2022-09-28T13:48:50.648Z,6.03
2022-09-28T13:52:06.765Z,6.22
2022-09-28T13:55:03.783Z,4.70
2022-09-28T13:57:54.262Z,5.30
2022-09-28T14:00:51.393Z,5.63
2022-09-28T14:04:06.785Z,5.00
2022-09-28T14:06:48.093Z,5.70
2022-09-28T14:09:47.822Z,4.82
2022-09-28T14:12:50.327Z,4.45
2022-09-28T14:15:37.658Z,4.53
2022-09-28T14:18:33.236Z,4.50
2022-09-28T14:21:20.623Z,5.10
2022-09-28T14:24:08.107Z,4.63
2022-09-28T14:27:26.754Z,4.20
2022-09-28T14:30:24.294Z,4.60
2022-09-28T14:32:59.840Z,5.38
2022-09-28T14:35:34.293Z,4.90
2022-09-28T14:38:37.176Z,5.97
2022-09-28T14:41:33.878Z,5.93
2022-09-28T14:44:18.892Z,5.80
2022-09-28T14:47:44.260Z,5.05
2022-09-28T14:50:26.072Z,5.85
2022-09-28T14:53:06.587Z,5.18
2022-09-28T14:55:50.300Z,4.35
2022-09-28T14:58:27.590Z,4.28
2022-09-28T15:01:12.944Z,4.78
2022-09-28T15:03:48.894Z,4.72
2022-09-28T15:06:24.165Z,5.95
2022-09-28T15:08:56.225Z,4.00
2022-09-28T15:11:28.166Z,4.60
2022-09-28T15:14:08.351Z,4.03
2022-09-28T15:16:40.405Z,4.45
2022-09-28T15:20:08.916Z,4.47
2022-09-28T15:22:49.649Z,5.95
2022-09-28T15:25:25.023Z,5.15
2022-09-28T15:28:02.449Z,4.70
2022-09-28T15:30:36.542Z,4.32
2022-09-28T15:33:49.052Z,4.07
2022-09-28T15:36:26.766Z,4.30
2022-09-28T15:39:30.142Z,4.40
2022-09-28T15:42:02.597Z,4.95
2022-09-28T15:44:38.622Z,4.40
2022-09-28T15:47:26.830Z,3.63
2022-09-28T15:50:19.575Z,4.68
2022-09-28T15:53:01.189Z,4.15
2022-09-28T15:55:40.044Z,4.63
2022-09-28T15:58:21.105Z,5.10
2022-09-28T16:01:36.741Z,5.40
2022-09-28T16:04:48.208Z,5.57
2022-09-28T16:07:23.398Z,4.90
2022-09-28T16:10:25.647Z,5.55
2022-09-28T16:13:14.437Z,4.93
2022-09-28T16:15:46.486Z,4.88
2022-09-28T16:18:22.261Z,5.28
2022-09-28T16:21:45.606Z,4.72
2022-09-28T16:24:30.560Z,4.00
2022-09-28T16:27:16.404Z,4.65
2022-09-28T16:30:16.738Z,8.13
2022-09-28T16:33:08.584Z,6.03
2022-09-28T16:35:40.416Z,6.00
2022-09-28T16:38:18.261Z,5.55
2022-09-28T16:40:54.952Z,5.70
2022-09-28T16:43:30.318Z,6.13
2022-09-28T16:46:14.470Z,5.75
2022-09-28T16:48:51.027Z,6.43
2022-09-28T16:51:23.697Z,5.85
2022-09-28T16:54:18.989Z,7.38
2022-09-28T16:56:51.057Z,6.72
2022-09-28T16:59:23.102Z,6.88
2022-09-28T17:01:56.819Z,7.20
2022-09-28T17:04:28.771Z,7.38
2022-09-28T17:07:00.853Z,7.70
2022-09-28T17:09:33.222Z,8.90
2022-09-28T17:12:23.028Z,9.32
2022-09-28T17:14:55.382Z,10.57
2022-09-28T17:17:30.002Z,10.93
2022-09-28T17:20:13.231Z,9.95
2022-09-28T17:22:45.289Z,10.77
2022-09-28T17:25:18.127Z,12.68
2022-09-28T17:27:51.089Z,12.25
2022-09-28T17:30:23.745Z,12.95
2022-09-28T17:33:00.095Z,11.77
2022-09-28T17:35:34.160Z,12.68
2022-09-28T17:38:15.403Z,15.80
2022-09-28T17:40:48.307Z,13.90
2022-09-28T17:43:22.246Z,17.63
2022-09-28T17:45:54.231Z,17.67
2022-09-28T17:48:27.268Z,17.73
2022-09-28T17:50:59.957Z,16.85
2022-09-28T17:53:31.927Z,15.38
2022-09-28T17:56:03.889Z,18.02
2022-09-28T17:58:36.242Z,17.75
2022-09-28T18:01:09.326Z,15.55
2022-09-28T18:03:42.218Z,16.75
2022-09-28T18:06:20.089Z,16.98
2022-09-28T18:08:52.096Z,17.67
2022-09-28T18:11:24.074Z,16.13
2022-09-28T18:13:56.030Z,16.83
2022-09-28T18:16:28.932Z,15.88
2022-09-28T18:19:01.113Z,17.02
2022-09-28T18:21:33.566Z,16.20
2022-09-28T18:24:05.744Z,16.73
2022-09-28T18:26:37.874Z,15.68
2022-09-28T18:29:10.840Z,16.33
2022-09-28T18:31:42.885Z,15.95
2022-09-28T18:34:15.717Z,15.90
2022-09-28T18:36:47.880Z,15.70
2022-09-28T18:39:19.996Z,16.75
2022-09-28T18:41:52.279Z,16.10
2022-09-28T18:44:24.484Z,15.73
2022-09-28T18:46:56.482Z,16.33
2022-09-28T18:49:31.195Z,16.27
2022-09-28T18:52:03.682Z,15.80
2022-09-28T18:54:35.718Z,15.90
2022-09-28T18:57:07.748Z,17.75
2022-09-28T18:59:39.682Z,17.52
2022-09-28T19:02:12.085Z,16.75
2022-09-28T19:04:44.279Z,18.00
2022-09-28T19:07:17.299Z,16.25
2022-09-28T19:09:50.237Z,16.02
2022-09-28T19:12:22.362Z,15.93
2022-09-28T19:14:54.374Z,17.08
2022-09-28T19:17:26.488Z,16.75
2022-09-28T19:19:58.905Z,16.70
2022-09-28T19:22:31.454Z,15.90
2022-09-28T19:25:03.462Z,14.73
2022-09-28T19:27:35.826Z,15.57
2022-09-28T19:30:08.815Z,15.65
2022-09-28T19:32:42.123Z,15.52
2022-09-28T19:35:14.129Z,17.08
2022-09-28T19:37:46.886Z,16.83
2022-09-28T19:40:18.896Z,16.38
2022-09-28T19:42:50.897Z,14.60
2022-09-28T19:45:23.702Z,14.93
2022-09-28T19:47:59.548Z,15.48
2022-09-28T19:50:32.426Z,15.98
2022-09-28T19:53:07.281Z,15.18
2022-09-28T19:55:40.923Z,14.15
2022-09-28T19:58:12.889Z,15.30
2022-09-28T20:00:44.815Z,14.60
2022-09-28T20:03:18.826Z,15.70
2022-09-28T20:05:57.637Z,16.17
2022-09-28T20:08:33.055Z,16.45
2022-09-28T20:11:05.544Z,15.30
2022-09-28T20:13:37.861Z,16.05
2022-09-28T20:16:14.322Z,16.10
2022-09-28T20:18:50.389Z,14.88
2022-09-28T20:21:26.774Z,15.10
2022-09-28T20:23:59.098Z,15.63
2022-09-28T20:26:37.370Z,15.70
2022-09-28T20:29:09.893Z,14.38
2022-09-28T20:31:42.795Z,15.90
2022-09-28T20:34:15.006Z,15.00
2022-09-28T20:36:46.944Z,15.20
2022-09-28T20:39:19.123Z,16.85
2022-09-28T20:41:51.154Z,15.63
2022-09-28T20:44:23.196Z,16.55
2022-09-28T20:46:56.741Z,17.23
2022-09-28T20:49:28.817Z,17.77
2022-09-28T20:52:00.835Z,16.10
2022-09-28T20:54:32.840Z,17.00
2022-09-28T20:57:17.553Z,15.07
2022-09-28T20:59:54.583Z,18.60
2022-09-28T21:02:26.962Z,17.23
2022-09-28T21:04:58.982Z,16.92
2022-09-28T21:07:31.141Z,17.10
2022-09-28T21:10:03.153Z,17.85
2022-09-28T21:12:35.046Z,17.52
2022-09-28T21:15:07.664Z,21.95
2022-09-28T21:17:39.624Z,17.38
2022-09-28T21:20:11.567Z,15.15
2022-09-28T21:22:43.531Z,18.05
2022-09-28T21:25:15.549Z,16.20
2022-09-28T21:27:47.967Z,16.45
2022-09-28T21:30:20.180Z,17.02
2022-09-28T21:32:52.238Z,17.10
2022-09-28T21:35:24.401Z,18.35
2022-09-28T21:37:56.366Z,15.90
2022-09-28T21:40:28.334Z,16.70
2022-09-28T21:43:00.430Z,16.52
2022-09-28T21:45:32.899Z,15.73
2022-09-28T21:48:05.154Z,15.98
2022-09-28T21:50:37.107Z,15.73
2022-09-28T21:53:09.020Z,15.93
2022-09-28T21:55:40.942Z,16.58
2022-09-28T21:58:12.903Z,15.80
2022-09-28T22:00:44.831Z,17.73
2022-09-28T22:03:17.257Z,16.25
2022-09-28T22:05:52.232Z,15.55
2022-09-28T22:08:25.371Z,15.60
2022-09-28T22:11:12.108Z,16.02
2022-09-28T22:13:53.634Z,15.48
2022-09-28T22:16:29.348Z,16.20
2022-09-28T22:19:01.664Z,14.82
2022-09-28T22:21:35.100Z,15.20
2022-09-28T22:24:07.849Z,15.73
2022-09-28T22:26:40.543Z,14.57
2022-09-28T22:29:12.538Z,15.40
2022-09-28T22:31:44.510Z,15.05
2022-09-28T22:34:16.501Z,14.65
2022-09-28T22:36:48.439Z,14.27
2022-09-28T22:39:20.359Z,14.07
2022-09-28T22:41:52.653Z,14.32
2022-09-28T22:44:25.528Z,14.18
2022-09-28T22:46:57.529Z,14.00
2022-09-28T22:49:29.922Z,14.27
2022-09-28T22:52:02.103Z,14.27
2022-09-28T22:54:34.112Z,13.15
2022-09-28T22:57:06.311Z,13.48
2022-09-28T22:59:38.361Z,13.43
2022-09-28T23:02:10.305Z,13.23
2022-09-28T23:04:42.303Z,13.25
2022-09-28T23:07:14.244Z,14.07
2022-09-28T23:09:46.155Z,14.27
2022-09-28T23:12:18.065Z,14.48
2022-09-28T23:14:49.967Z,13.25
2022-09-28T23:17:21.992Z,13.80
2022-09-28T23:19:53.964Z,14.02
2022-09-28T23:22:27.450Z,12.43
2022-09-28T23:24:59.943Z,13.90
2022-09-28T23:27:31.978Z,12.98
2022-09-28T23:30:04.174Z,12.85
2022-09-28T23:32:36.217Z,12.60
2022-09-28T23:35:09.110Z,13.13
2022-09-28T23:37:41.078Z,12.93
2022-09-28T23:40:13.097Z,13.38
2022-09-28T23:42:45.144Z,13.43
2022-09-28T23:45:17.042Z,12.82
2022-09-28T23:47:49.112Z,13.00
2022-09-28T23:50:20.997Z,12.30
2022-09-28T23:52:53.111Z,13.32
2022-09-28T23:55:25.046Z,12.98
2022-09-28T23:57:58.233Z,12.50
